sensor_id;sensor_type;location;lat;lon;timestamp;temperature;humidity
1786;DHT22;890;48.158;11.540;2023-05-16T00:01:15;12.60;91.70
1786;DHT22;890;48.158;11.540;2023-05-16T00:03:41;12.50;91.80
1786;DHT22;890;48.158;11.540;2023-05-16T00:06:07;12.50;91.90
1786;DHT22;890;48.158;11.540;2023-05-16T00:08:33;12.60;91.90
1786;DHT22;890;48.158;11.540;2023-05-16T00:10:59;12.50;91.90
1786;DHT22;890;48.158;11.540;2023-05-16T00:13:24;12.50;91.90
1786;DHT22;890;48.158;11.540;2023-05-16T00:15:53;12.50;92.00
1786;DHT22;890;48.158;11.540;2023-05-16T00:18:22;12.50;92.40
1786;DHT22;890;48.158;11.540;2023-05-16T00:20:48;12.50;92.10
1786;DHT22;890;48.158;11.540;2023-05-16T00:23:15;12.50;92.10
1786;DHT22;890;48.158;11.540;2023-05-16T00:25:41;12.50;92.20
1786;DHT22;890;48.158;11.540;2023-05-16T00:28:07;12.50;92.20
1786;DHT22;890;48.158;11.540;2023-05-16T00:30:33;12.40;92.20
1786;DHT22;890;48.158;11.540;2023-05-16T00:32:59;12.50;92.40
1786;DHT22;890;48.158;11.540;2023-05-16T00:35:24;12.40;92.20
1786;DHT22;890;48.158;11.540;2023-05-16T00:37:50;12.40;92.30
1786;DHT22;890;48.158;11.540;2023-05-16T00:40:16;12.30;92.40
1786;DHT22;890;48.158;11.540;2023-05-16T00:42:41;12.30;92.50
1786;DHT22;890;48.158;11.540;2023-05-16T00:45:08;12.30;92.60
1786;DHT22;890;48.158;11.540;2023-05-16T00:47:34;12.30;92.70
1786;DHT22;890;48.158;11.540;2023-05-16T00:50:00;12.30;92.70
1786;DHT22;890;48.158;11.540;2023-05-16T00:52:26;12.30;92.80
1786;DHT22;890;48.158;11.540;2023-05-16T00:54:53;12.30;93.00
1786;DHT22;890;48.158;11.540;2023-05-16T00:57:18;12.40;93.00
1786;DHT22;890;48.158;11.540;2023-05-16T00:59:45;12.40;92.80
1786;DHT22;890;48.158;11.540;2023-05-16T01:02:12;12.40;92.90
1786;DHT22;890;48.158;11.540;2023-05-16T01:04:38;12.50;92.90
1786;DHT22;890;48.158;11.540;2023-05-16T01:07:03;12.50;92.90
1786;DHT22;890;48.158;11.540;2023-05-16T01:09:29;12.50;92.90
1786;DHT22;890;48.158;11.540;2023-05-16T01:12:15;12.50;93.00
1786;DHT22;890;48.158;11.540;2023-05-16T01:28:38;12.30;93.00
1786;DHT22;890;48.158;11.540;2023-05-16T01:31:04;12.30;93.10
1786;DHT22;890;48.158;11.540;2023-05-16T01:33:30;12.30;93.20
1786;DHT22;890;48.158;11.540;2023-05-16T01:36:10;12.30;93.40
1786;DHT22;890;48.158;11.540;2023-05-16T01:38:39;12.30;93.50
1786;DHT22;890;48.158;11.540;2023-05-16T01:41:15;12.30;93.40
1786;DHT22;890;48.158;11.540;2023-05-16T01:43:45;12.20;93.50
1786;DHT22;890;48.158;11.540;2023-05-16T01:46:14;12.20;93.60
1786;DHT22;890;48.158;11.540;2023-05-16T01:51:13;12.10;93.80
1786;DHT22;890;48.158;11.540;2023-05-16T01:53:38;12.20;93.90
1786;DHT22;890;48.158;11.540;2023-05-16T01:56:09;12.30;93.90
1786;DHT22;890;48.158;11.540;2023-05-16T01:58:36;12.20;93.80
1786;DHT22;890;48.158;11.540;2023-05-16T02:01:04;12.20;94.00
1786;DHT22;890;48.158;11.540;2023-05-16T02:03:30;12.30;94.10
1786;DHT22;890;48.158;11.540;2023-05-16T02:05:56;12.20;93.90
1786;DHT22;890;48.158;11.540;2023-05-16T02:08:23;12.20;93.90
1786;DHT22;890;48.158;11.540;2023-05-16T02:10:51;12.20;94.00
1786;DHT22;890;48.158;11.540;2023-05-16T02:13:16;12.10;94.00
1786;DHT22;890;48.158;11.540;2023-05-16T02:15:42;12.20;94.20
1786;DHT22;890;48.158;11.540;2023-05-16T02:18:08;12.10;94.20
1786;DHT22;890;48.158;11.540;2023-05-16T02:20:34;12.10;94.40
1786;DHT22;890;48.158;11.540;2023-05-16T02:23:00;12.10;94.40
1786;DHT22;890;48.158;11.540;2023-05-16T02:25:27;12.10;94.40
1786;DHT22;890;48.158;11.540;2023-05-16T02:27:53;12.10;94.40
1786;DHT22;890;48.158;11.540;2023-05-16T02:30:19;12.10;94.40
1786;DHT22;890;48.158;11.540;2023-05-16T02:32:45;12.10;94.50
1786;DHT22;890;48.158;11.540;2023-05-16T02:35:10;12.10;94.50
1786;DHT22;890;48.158;11.540;2023-05-16T02:37:36;12.20;94.50
1786;DHT22;890;48.158;11.540;2023-05-16T02:40:03;12.30;94.50
1786;DHT22;890;48.158;11.540;2023-05-16T02:42:32;12.40;94.30
1786;DHT22;890;48.158;11.540;2023-05-16T02:44:57;12.40;94.10
1786;DHT22;890;48.158;11.540;2023-05-16T02:47:23;12.50;94.00
1786;DHT22;890;48.158;11.540;2023-05-16T02:49:48;12.40;94.00
1786;DHT22;890;48.158;11.540;2023-05-16T02:52:19;12.40;94.00
1786;DHT22;890;48.158;11.540;2023-05-16T02:54:44;12.50;94.00
1786;DHT22;890;48.158;11.540;2023-05-16T02:57:10;12.40;93.90
1786;DHT22;890;48.158;11.540;2023-05-16T02:59:37;12.50;94.00
1786;DHT22;890;48.158;11.540;2023-05-16T03:02:02;12.50;93.90
1786;DHT22;890;48.158;11.540;2023-05-16T03:04:28;12.40;93.80
1786;DHT22;890;48.158;11.540;2023-05-16T03:06:54;12.30;93.80
1786;DHT22;890;48.158;11.540;2023-05-16T03:09:20;12.40;94.00
1786;DHT22;890;48.158;11.540;2023-05-16T03:11:46;12.30;93.90
1786;DHT22;890;48.158;11.540;2023-05-16T03:14:11;12.30;94.00
1786;DHT22;890;48.158;11.540;2023-05-16T03:16:37;12.20;93.90
1786;DHT22;890;48.158;11.540;2023-05-16T03:19:04;12.20;94.10
1786;DHT22;890;48.158;11.540;2023-05-16T03:21:30;12.30;94.10
1786;DHT22;890;48.158;11.540;2023-05-16T03:23:56;12.20;94.00
1786;DHT22;890;48.158;11.540;2023-05-16T03:26:25;12.10;94.10
1786;DHT22;890;48.158;11.540;2023-05-16T03:28:51;12.30;94.40
1786;DHT22;890;48.158;11.540;2023-05-16T03:31:16;12.10;94.40
1786;DHT22;890;48.158;11.540;2023-05-16T03:33:42;12.20;94.50
1786;DHT22;890;48.158;11.540;2023-05-16T03:36:08;12.20;94.50
1786;DHT22;890;48.158;11.540;2023-05-16T03:38:35;12.20;94.50
1786;DHT22;890;48.158;11.540;2023-05-16T03:41:00;12.20;94.40
1786;DHT22;890;48.158;11.540;2023-05-16T03:43:26;12.20;94.30
1786;DHT22;890;48.158;11.540;2023-05-16T03:45:52;12.10;94.40
1786;DHT22;890;48.158;11.540;2023-05-16T03:48:17;12.00;94.40
1786;DHT22;890;48.158;11.540;2023-05-16T03:50:43;12.00;94.60
1786;DHT22;890;48.158;11.540;2023-05-16T03:53:09;12.20;94.80
1786;DHT22;890;48.158;11.540;2023-05-16T03:55:35;12.00;94.70
1786;DHT22;890;48.158;11.540;2023-05-16T03:58:00;12.00;94.80
1786;DHT22;890;48.158;11.540;2023-05-16T04:00:26;12.70;95.20
1786;DHT22;890;48.158;11.540;2023-05-16T04:02:52;12.00;94.90
1786;DHT22;890;48.158;11.540;2023-05-16T04:05:17;12.00;95.00
1786;DHT22;890;48.158;11.540;2023-05-16T04:07:43;12.00;94.90
1786;DHT22;890;48.158;11.540;2023-05-16T04:10:09;12.00;94.80
1786;DHT22;890;48.158;11.540;2023-05-16T04:12:35;12.20;94.90
1786;DHT22;890;48.158;11.540;2023-05-16T04:15:03;12.20;94.90
1786;DHT22;890;48.158;11.540;2023-05-16T04:17:28;12.00;94.90
1786;DHT22;890;48.158;11.540;2023-05-16T04:19:54;11.90;94.90
1786;DHT22;890;48.158;11.540;2023-05-16T04:22:21;11.90;95.00
1786;DHT22;890;48.158;11.540;2023-05-16T04:24:49;11.90;94.90
1786;DHT22;890;48.158;11.540;2023-05-16T04:27:15;11.90;94.90
1786;DHT22;890;48.158;11.540;2023-05-16T04:29:41;11.90;95.00
1786;DHT22;890;48.158;11.540;2023-05-16T04:32:08;11.90;95.00
1786;DHT22;890;48.158;11.540;2023-05-16T04:34:34;11.90;95.00
1786;DHT22;890;48.158;11.540;2023-05-16T04:37:03;11.90;95.00
1786;DHT22;890;48.158;11.540;2023-05-16T04:39:29;11.90;95.10
1786;DHT22;890;48.158;11.540;2023-05-16T04:41:55;12.00;95.00
1786;DHT22;890;48.158;11.540;2023-05-16T04:44:24;12.10;94.80
1786;DHT22;890;48.158;11.540;2023-05-16T04:46:49;12.20;94.80
1786;DHT22;890;48.158;11.540;2023-05-16T04:49:15;12.20;95.10
1786;DHT22;890;48.158;11.540;2023-05-16T04:51:41;12.20;94.70
1786;DHT22;890;48.158;11.540;2023-05-16T04:54:07;12.20;94.60
1786;DHT22;890;48.158;11.540;2023-05-16T04:56:33;12.20;94.60
1786;DHT22;890;48.158;11.540;2023-05-16T04:58:58;12.30;94.60
1786;DHT22;890;48.158;11.540;2023-05-16T05:01:24;12.30;94.60
1786;DHT22;890;48.158;11.540;2023-05-16T05:03:50;12.30;94.50
1786;DHT22;890;48.158;11.540;2023-05-16T05:06:15;12.20;94.50
1786;DHT22;890;48.158;11.540;2023-05-16T05:08:41;12.30;94.60
1786;DHT22;890;48.158;11.540;2023-05-16T05:11:06;12.30;94.50
1786;DHT22;890;48.158;11.540;2023-05-16T05:13:32;12.30;94.50
1786;DHT22;890;48.158;11.540;2023-05-16T05:15:57;12.30;94.50
1786;DHT22;890;48.158;11.540;2023-05-16T05:18:23;12.40;94.40
1786;DHT22;890;48.158;11.540;2023-05-16T05:20:49;12.30;94.30
1786;DHT22;890;48.158;11.540;2023-05-16T05:23:15;12.30;94.50
1786;DHT22;890;48.158;11.540;2023-05-16T05:25:41;12.40;94.30
1786;DHT22;890;48.158;11.540;2023-05-16T05:28:06;12.50;94.20
1786;DHT22;890;48.158;11.540;2023-05-16T05:30:32;12.40;94.10
1786;DHT22;890;48.158;11.540;2023-05-16T05:32:57;12.40;94.00
1786;DHT22;890;48.158;11.540;2023-05-16T05:35:23;12.40;94.00
1786;DHT22;890;48.158;11.540;2023-05-16T05:37:49;12.40;93.90
1786;DHT22;890;48.158;11.540;2023-05-16T05:40:14;12.40;93.90
1786;DHT22;890;48.158;11.540;2023-05-16T05:42:40;12.30;94.00
1786;DHT22;890;48.158;11.540;2023-05-16T05:45:06;12.20;94.00
1786;DHT22;890;48.158;11.540;2023-05-16T05:47:32;12.20;94.10
1786;DHT22;890;48.158;11.540;2023-05-16T05:49:58;12.10;94.10
1786;DHT22;890;48.158;11.540;2023-05-16T05:52:23;12.10;94.30
1786;DHT22;890;48.158;11.540;2023-05-16T05:54:49;12.10;94.40
1786;DHT22;890;48.158;11.540;2023-05-16T05:57:15;12.10;94.40
1786;DHT22;890;48.158;11.540;2023-05-16T05:59:40;12.00;94.30
1786;DHT22;890;48.158;11.540;2023-05-16T06:02:07;12.00;94.40
1786;DHT22;890;48.158;11.540;2023-05-16T06:04:32;12.00;94.40
1786;DHT22;890;48.158;11.540;2023-05-16T06:06:58;12.00;94.50
1786;DHT22;890;48.158;11.540;2023-05-16T06:09:23;12.10;94.70
1786;DHT22;890;48.158;11.540;2023-05-16T06:11:49;12.10;94.70
1786;DHT22;890;48.158;11.540;2023-05-16T06:14:15;12.10;94.70
1786;DHT22;890;48.158;11.540;2023-05-16T06:16:41;12.00;94.80
1786;DHT22;890;48.158;11.540;2023-05-16T06:19:07;12.10;94.70
1786;DHT22;890;48.158;11.540;2023-05-16T06:21:33;12.20;94.70
1786;DHT22;890;48.158;11.540;2023-05-16T06:23:58;12.30;94.70
1786;DHT22;890;48.158;11.540;2023-05-16T06:26:24;12.30;94.60
1786;DHT22;890;48.158;11.540;2023-05-16T06:28:49;12.30;94.60
1786;DHT22;890;48.158;11.540;2023-05-16T06:31:15;12.30;94.70
1786;DHT22;890;48.158;11.540;2023-05-16T06:33:41;12.40;94.70
1786;DHT22;890;48.158;11.540;2023-05-16T06:36:06;12.50;94.70
1786;DHT22;890;48.158;11.540;2023-05-16T06:38:32;12.60;94.70
1786;DHT22;890;48.158;11.540;2023-05-16T06:40:58;12.80;94.80
1786;DHT22;890;48.158;11.540;2023-05-16T06:43:23;12.90;94.70
1786;DHT22;890;48.158;11.540;2023-05-16T06:45:49;13.00;94.60
1786;DHT22;890;48.158;11.540;2023-05-16T06:48:16;13.00;94.40
1786;DHT22;890;48.158;11.540;2023-05-16T06:50:46;13.10;94.20
1786;DHT22;890;48.158;11.540;2023-05-16T06:53:11;13.30;94.00
1786;DHT22;890;48.158;11.540;2023-05-16T06:55:37;13.50;93.40
1786;DHT22;890;48.158;11.540;2023-05-16T06:58:02;13.30;93.30
1786;DHT22;890;48.158;11.540;2023-05-16T07:00:28;13.30;93.40
1786;DHT22;890;48.158;11.540;2023-05-16T07:02:53;13.30;93.50
1786;DHT22;890;48.158;11.540;2023-05-16T07:05:19;13.30;93.30
1786;DHT22;890;48.158;11.540;2023-05-16T07:07:45;13.50;93.00
1786;DHT22;890;48.158;11.540;2023-05-16T07:10:10;13.50;92.80
1786;DHT22;890;48.158;11.540;2023-05-16T07:12:36;13.70;92.60
1786;DHT22;890;48.158;11.540;2023-05-16T07:15:03;13.80;92.30
1786;DHT22;890;48.158;11.540;2023-05-16T07:17:29;13.70;92.00
1786;DHT22;890;48.158;11.540;2023-05-16T07:19:54;13.50;92.20
1786;DHT22;890;48.158;11.540;2023-05-16T07:22:20;13.60;92.10
1786;DHT22;890;48.158;11.540;2023-05-16T07:24:45;13.60;92.00
1786;DHT22;890;48.158;11.540;2023-05-16T07:27:11;13.70;92.10
1786;DHT22;890;48.158;11.540;2023-05-16T07:29:37;13.70;92.00
1786;DHT22;890;48.158;11.540;2023-05-16T07:32:03;13.50;92.10
1786;DHT22;890;48.158;11.540;2023-05-16T07:34:29;13.50;92.30
1786;DHT22;890;48.158;11.540;2023-05-16T07:36:54;13.40;92.30
1786;DHT22;890;48.158;11.540;2023-05-16T07:39:20;13.40;92.20
1786;DHT22;890;48.158;11.540;2023-05-16T07:41:46;13.30;92.20
1786;DHT22;890;48.158;11.540;2023-05-16T07:44:11;13.20;92.30
1786;DHT22;890;48.158;11.540;2023-05-16T07:46:37;13.10;92.40
1786;DHT22;890;48.158;11.540;2023-05-16T07:49:02;13.10;92.70
1786;DHT22;890;48.158;11.540;2023-05-16T07:51:28;13.20;92.80
1786;DHT22;890;48.158;11.540;2023-05-16T07:53:53;13.20;92.70
1786;DHT22;890;48.158;11.540;2023-05-16T07:56:19;13.20;92.80
1786;DHT22;890;48.158;11.540;2023-05-16T07:58:44;13.20;92.80
1786;DHT22;890;48.158;11.540;2023-05-16T08:01:10;13.10;93.10
1786;DHT22;890;48.158;11.540;2023-05-16T08:03:36;13.10;93.50
1786;DHT22;890;48.158;11.540;2023-05-16T08:06:02;13.10;93.70
1786;DHT22;890;48.158;11.540;2023-05-16T08:08:27;13.10;93.80
1786;DHT22;890;48.158;11.540;2023-05-16T08:10:53;13.20;93.90
1786;DHT22;890;48.158;11.540;2023-05-16T08:13:19;13.20;93.90
1786;DHT22;890;48.158;11.540;2023-05-16T08:15:44;13.30;93.90
1786;DHT22;890;48.158;11.540;2023-05-16T08:18:14;13.30;93.90
1786;DHT22;890;48.158;11.540;2023-05-16T08:20:40;13.30;93.90
1786;DHT22;890;48.158;11.540;2023-05-16T08:23:07;13.30;93.90
1786;DHT22;890;48.158;11.540;2023-05-16T08:25:33;13.20;94.00
1786;DHT22;890;48.158;11.540;2023-05-16T08:27:59;13.10;94.10
1786;DHT22;890;48.158;11.540;2023-05-16T08:30:26;13.10;94.30
1786;DHT22;890;48.158;11.540;2023-05-16T08:32:52;13.00;94.50
1786;DHT22;890;48.158;11.540;2023-05-16T08:35:18;13.00;94.80
1786;DHT22;890;48.158;11.540;2023-05-16T08:37:43;13.00;94.90
1786;DHT22;890;48.158;11.540;2023-05-16T08:40:09;13.00;95.10
1786;DHT22;890;48.158;11.540;2023-05-16T08:42:36;13.10;95.40
1786;DHT22;890;48.158;11.540;2023-05-16T08:45:02;13.20;95.60
1786;DHT22;890;48.158;11.540;2023-05-16T08:47:30;13.30;95.70
1786;DHT22;890;48.158;11.540;2023-05-16T08:49:57;13.40;95.50
1786;DHT22;890;48.158;11.540;2023-05-16T08:52:26;13.50;95.40
1786;DHT22;890;48.158;11.540;2023-05-16T08:55:00;13.40;95.30
1786;DHT22;890;48.158;11.540;2023-05-16T08:57:26;13.50;95.60
1786;DHT22;890;48.158;11.540;2023-05-16T08:59:53;13.50;95.70
1786;DHT22;890;48.158;11.540;2023-05-16T09:02:21;13.40;95.80
1786;DHT22;890;48.158;11.540;2023-05-16T09:04:48;13.50;96.10
1786;DHT22;890;48.158;11.540;2023-05-16T09:07:13;13.70;95.80
1786;DHT22;890;48.158;11.540;2023-05-16T09:09:40;13.90;95.80
1786;DHT22;890;48.158;11.540;2023-05-16T09:12:06;13.90;95.90
1786;DHT22;890;48.158;11.540;2023-05-16T09:14:32;14.10;96.00
1786;DHT22;890;48.158;11.540;2023-05-16T09:17:08;14.20;95.60
1786;DHT22;890;48.158;11.540;2023-05-16T09:19:41;14.20;95.10
1786;DHT22;890;48.158;11.540;2023-05-16T09:22:11;14.30;94.60
1786;DHT22;890;48.158;11.540;2023-05-16T09:24:42;14.40;94.40
1786;DHT22;890;48.158;11.540;2023-05-16T09:27:14;14.40;94.20
1786;DHT22;890;48.158;11.540;2023-05-16T09:29:43;14.40;94.10
1786;DHT22;890;48.158;11.540;2023-05-16T09:34:45;14.30;94.70
1786;DHT22;890;48.158;11.540;2023-05-16T09:37:14;14.30;94.70
1786;DHT22;890;48.158;11.540;2023-05-16T09:39:48;14.30;94.70
1786;DHT22;890;48.158;11.540;2023-05-16T09:42:18;14.40;94.60
1786;DHT22;890;48.158;11.540;2023-05-16T09:44:53;14.40;94.50
1786;DHT22;890;48.158;11.540;2023-05-16T09:47:20;14.40;94.40
1786;DHT22;890;48.158;11.540;2023-05-16T09:49:50;14.50;94.50
1786;DHT22;890;48.158;11.540;2023-05-16T09:52:16;14.70;94.20
1786;DHT22;890;48.158;11.540;2023-05-16T09:54:42;14.60;94.00
1786;DHT22;890;48.158;11.540;2023-05-16T09:57:10;14.60;93.90
1786;DHT22;890;48.158;11.540;2023-05-16T09:59:37;14.70;93.50
1786;DHT22;890;48.158;11.540;2023-05-16T10:02:05;14.70;93.40
1786;DHT22;890;48.158;11.540;2023-05-16T10:04:30;14.80;93.80
1786;DHT22;890;48.158;11.540;2023-05-16T10:06:56;14.70;93.50
1786;DHT22;890;48.158;11.540;2023-05-16T10:09:24;14.70;93.30
1786;DHT22;890;48.158;11.540;2023-05-16T10:11:51;14.60;93.40
1786;DHT22;890;48.158;11.540;2023-05-16T10:14:18;14.50;93.60
1786;DHT22;890;48.158;11.540;2023-05-16T10:16:46;14.50;93.70
1786;DHT22;890;48.158;11.540;2023-05-16T10:19:16;14.40;93.50
1786;DHT22;890;48.158;11.540;2023-05-16T10:21:49;14.40;93.40
1786;DHT22;890;48.158;11.540;2023-05-16T10:24:21;14.30;93.50
1786;DHT22;890;48.158;11.540;2023-05-16T10:26:48;14.30;93.80
1786;DHT22;890;48.158;11.540;2023-05-16T10:29:15;14.40;93.90
1786;DHT22;890;48.158;11.540;2023-05-16T10:31:41;14.30;94.30
1786;DHT22;890;48.158;11.540;2023-05-16T10:34:07;14.30;94.00
1786;DHT22;890;48.158;11.540;2023-05-16T10:36:35;14.20;94.00
1786;DHT22;890;48.158;11.540;2023-05-16T10:39:01;14.10;94.20
1786;DHT22;890;48.158;11.540;2023-05-16T10:41:28;14.00;94.30
1786;DHT22;890;48.158;11.540;2023-05-16T10:43:57;13.90;94.50
1786;DHT22;890;48.158;11.540;2023-05-16T10:46:26;13.90;94.70
1786;DHT22;890;48.158;11.540;2023-05-16T10:48:51;13.80;94.80
1786;DHT22;890;48.158;11.540;2023-05-16T10:51:33;13.90;95.20
1786;DHT22;890;48.158;11.540;2023-05-16T10:54:07;13.80;95.40
1786;DHT22;890;48.158;11.540;2023-05-16T10:56:33;13.70;95.50
1786;DHT22;890;48.158;11.540;2023-05-16T10:58:59;13.50;95.60
1786;DHT22;890;48.158;11.540;2023-05-16T11:01:35;13.40;96.10
1786;DHT22;890;48.158;11.540;2023-05-16T11:06:29;13.50;96.70
1786;DHT22;890;48.158;11.540;2023-05-16T11:19:30;13.30;98.00
1786;DHT22;890;48.158;11.540;2023-05-16T11:27:22;12.60;99.90
1786;DHT22;890;48.158;11.540;2023-05-16T11:29:48;12.60;99.90
1786;DHT22;890;48.158;11.540;2023-05-16T11:32:19;12.50;99.90
1786;DHT22;890;48.158;11.540;2023-05-16T11:34:46;12.30;99.90
1786;DHT22;890;48.158;11.540;2023-05-16T11:37:12;12.30;99.90
1786;DHT22;890;48.158;11.540;2023-05-16T11:39:38;12.30;99.90
1786;DHT22;890;48.158;11.540;2023-05-16T11:42:04;12.30;99.90
1786;DHT22;890;48.158;11.540;2023-05-16T11:44:29;12.40;99.90
1786;DHT22;890;48.158;11.540;2023-05-16T11:46:55;12.50;99.90
1786;DHT22;890;48.158;11.540;2023-05-16T11:49:21;12.60;99.90
1786;DHT22;890;48.158;11.540;2023-05-16T11:51:47;12.70;99.90
1786;DHT22;890;48.158;11.540;2023-05-16T11:54:14;12.90;99.90
1786;DHT22;890;48.158;11.540;2023-05-16T11:56:40;13.10;99.90
1786;DHT22;890;48.158;11.540;2023-05-16T11:59:07;13.50;99.90
1786;DHT22;890;48.158;11.540;2023-05-16T12:01:34;13.60;99.90
1786;DHT22;890;48.158;11.540;2023-05-16T12:04:00;13.90;99.90
1786;DHT22;890;48.158;11.540;2023-05-16T12:06:26;14.20;99.90
1786;DHT22;890;48.158;11.540;2023-05-16T12:08:53;14.20;99.90
1786;DHT22;890;48.158;11.540;2023-05-16T12:11:21;14.20;99.90
1786;DHT22;890;48.158;11.540;2023-05-16T12:13:47;14.30;99.90
1786;DHT22;890;48.158;11.540;2023-05-16T12:16:12;14.40;99.90
1786;DHT22;890;48.158;11.540;2023-05-16T12:18:38;14.50;99.90
1786;DHT22;890;48.158;11.540;2023-05-16T12:21:04;14.60;99.90
1786;DHT22;890;48.158;11.540;2023-05-16T12:23:32;14.50;99.90
1786;DHT22;890;48.158;11.540;2023-05-16T12:25:58;14.50;99.90
1786;DHT22;890;48.158;11.540;2023-05-16T12:28:30;14.50;99.90
1786;DHT22;890;48.158;11.540;2023-05-16T12:30:58;14.60;99.90
1786;DHT22;890;48.158;11.540;2023-05-16T12:33:24;14.70;99.90
1786;DHT22;890;48.158;11.540;2023-05-16T12:35:49;14.80;99.90
1786;DHT22;890;48.158;11.540;2023-05-16T12:38:19;15.00;99.90
1786;DHT22;890;48.158;11.540;2023-05-16T12:40:45;15.00;99.90
1786;DHT22;890;48.158;11.540;2023-05-16T12:43:21;15.00;99.90
1786;DHT22;890;48.158;11.540;2023-05-16T12:45:57;15.00;99.90
1786;DHT22;890;48.158;11.540;2023-05-16T12:48:23;15.00;99.90
1786;DHT22;890;48.158;11.540;2023-05-16T12:50:54;15.10;99.90
1786;DHT22;890;48.158;11.540;2023-05-16T12:53:19;15.20;99.90
1786;DHT22;890;48.158;11.540;2023-05-16T12:55:45;15.20;99.90
1786;DHT22;890;48.158;11.540;2023-05-16T12:58:11;15.30;99.90
1786;DHT22;890;48.158;11.540;2023-05-16T13:00:37;15.30;99.90
1786;DHT22;890;48.158;11.540;2023-05-16T13:03:04;15.40;99.90
1786;DHT22;890;48.158;11.540;2023-05-16T13:05:30;15.30;99.90
1786;DHT22;890;48.158;11.540;2023-05-16T13:07:56;15.30;99.90
1786;DHT22;890;48.158;11.540;2023-05-16T13:10:21;15.50;99.90
1786;DHT22;890;48.158;11.540;2023-05-16T13:12:47;15.60;99.90
1786;DHT22;890;48.158;11.540;2023-05-16T13:15:13;15.60;99.90
1786;DHT22;890;48.158;11.540;2023-05-16T13:17:40;15.50;99.90
1786;DHT22;890;48.158;11.540;2023-05-16T13:20:08;15.50;99.90
1786;DHT22;890;48.158;11.540;2023-05-16T13:22:41;15.50;99.90
1786;DHT22;890;48.158;11.540;2023-05-16T13:25:07;15.30;99.90
1786;DHT22;890;48.158;11.540;2023-05-16T13:27:33;15.30;99.90
1786;DHT22;890;48.158;11.540;2023-05-16T13:29:59;15.20;99.20
1786;DHT22;890;48.158;11.540;2023-05-16T13:32:25;15.00;98.90
1786;DHT22;890;48.158;11.540;2023-05-16T13:34:51;14.70;97.90
1786;DHT22;890;48.158;11.540;2023-05-16T13:37:17;14.50;97.90
1786;DHT22;890;48.158;11.540;2023-05-16T13:39:43;14.20;97.90
1786;DHT22;890;48.158;11.540;2023-05-16T13:42:08;14.00;98.30
1786;DHT22;890;48.158;11.540;2023-05-16T13:44:34;13.80;98.60
1786;DHT22;890;48.158;11.540;2023-05-16T13:47:00;13.70;98.90
1786;DHT22;890;48.158;11.540;2023-05-16T13:49:25;13.70;99.20
1786;DHT22;890;48.158;11.540;2023-05-16T13:51:51;13.60;99.20
1786;DHT22;890;48.158;11.540;2023-05-16T13:54:18;13.50;99.30
1786;DHT22;890;48.158;11.540;2023-05-16T13:56:44;13.40;99.50
1786;DHT22;890;48.158;11.540;2023-05-16T13:59:10;13.30;99.90
1786;DHT22;890;48.158;11.540;2023-05-16T14:01:35;13.30;99.90
1786;DHT22;890;48.158;11.540;2023-05-16T14:04:01;13.20;99.70
1786;DHT22;890;48.158;11.540;2023-05-16T14:06:27;13.20;99.60
1786;DHT22;890;48.158;11.540;2023-05-16T14:08:53;13.10;99.80
1786;DHT22;890;48.158;11.540;2023-05-16T14:11:18;13.10;99.80
1786;DHT22;890;48.158;11.540;2023-05-16T14:13:44;13.00;99.90
1786;DHT22;890;48.158;11.540;2023-05-16T14:16:10;13.00;99.90
1786;DHT22;890;48.158;11.540;2023-05-16T14:18:36;12.90;99.90
1786;DHT22;890;48.158;11.540;2023-05-16T14:21:02;12.90;99.90
1786;DHT22;890;48.158;11.540;2023-05-16T14:23:27;12.90;99.90
1786;DHT22;890;48.158;11.540;2023-05-16T14:25:53;12.90;99.90
1786;DHT22;890;48.158;11.540;2023-05-16T14:28:18;12.90;99.90
1786;DHT22;890;48.158;11.540;2023-05-16T14:30:45;13.60;99.90
1786;DHT22;890;48.158;11.540;2023-05-16T14:33:10;12.90;99.90
1786;DHT22;890;48.158;11.540;2023-05-16T14:35:36;12.90;99.90
1786;DHT22;890;48.158;11.540;2023-05-16T14:38:03;12.90;99.90
1786;DHT22;890;48.158;11.540;2023-05-16T14:40:28;12.90;99.90
1786;DHT22;890;48.158;11.540;2023-05-16T14:42:54;12.90;99.90
1786;DHT22;890;48.158;11.540;2023-05-16T14:45:20;12.90;99.90
1786;DHT22;890;48.158;11.540;2023-05-16T14:47:45;13.00;99.90
1786;DHT22;890;48.158;11.540;2023-05-16T14:50:12;12.90;99.90
1786;DHT22;890;48.158;11.540;2023-05-16T14:52:39;13.00;99.90
1786;DHT22;890;48.158;11.540;2023-05-16T14:55:05;13.00;99.90
1786;DHT22;890;48.158;11.540;2023-05-16T14:57:31;12.90;99.90
1786;DHT22;890;48.158;11.540;2023-05-16T14:59:57;13.00;99.90
1786;DHT22;890;48.158;11.540;2023-05-16T15:02:23;13.00;99.90
1786;DHT22;890;48.158;11.540;2023-05-16T15:04:48;13.00;99.90
1786;DHT22;890;48.158;11.540;2023-05-16T15:07:14;13.00;99.90
1786;DHT22;890;48.158;11.540;2023-05-16T15:09:40;13.00;99.90
1786;DHT22;890;48.158;11.540;2023-05-16T15:12:06;13.00;99.90
1786;DHT22;890;48.158;11.540;2023-05-16T15:14:32;12.90;99.90
1786;DHT22;890;48.158;11.540;2023-05-16T15:16:57;12.90;99.90
1786;DHT22;890;48.158;11.540;2023-05-16T15:19:23;12.90;99.90
1786;DHT22;890;48.158;11.540;2023-05-16T15:21:49;12.80;99.90
1786;DHT22;890;48.158;11.540;2023-05-16T15:24:15;12.90;99.90
1786;DHT22;890;48.158;11.540;2023-05-16T15:26:42;12.90;99.90
1786;DHT22;890;48.158;11.540;2023-05-16T15:29:07;12.90;99.90
1786;DHT22;890;48.158;11.540;2023-05-16T15:31:33;13.00;99.90
1786;DHT22;890;48.158;11.540;2023-05-16T15:33:58;13.00;99.90
1786;DHT22;890;48.158;11.540;2023-05-16T15:36:24;13.00;99.90
1786;DHT22;890;48.158;11.540;2023-05-16T15:38:50;13.00;99.90
1786;DHT22;890;48.158;11.540;2023-05-16T15:41:15;13.00;99.90
1786;DHT22;890;48.158;11.540;2023-05-16T15:43:41;12.90;99.90
1786;DHT22;890;48.158;11.540;2023-05-16T15:46:07;12.90;99.90
1786;DHT22;890;48.158;11.540;2023-05-16T15:48:36;12.90;99.90
1786;DHT22;890;48.158;11.540;2023-05-16T15:51:01;12.80;99.90
1786;DHT22;890;48.158;11.540;2023-05-16T15:53:28;12.90;99.90
1786;DHT22;890;48.158;11.540;2023-05-16T15:55:53;12.80;99.90
1786;DHT22;890;48.158;11.540;2023-05-16T15:58:20;12.90;99.90
1786;DHT22;890;48.158;11.540;2023-05-16T16:00:46;12.90;99.90
1786;DHT22;890;48.158;11.540;2023-05-16T16:03:12;12.90;99.90
1786;DHT22;890;48.158;11.540;2023-05-16T16:05:37;13.00;99.90
1786;DHT22;890;48.158;11.540;2023-05-16T16:08:03;13.00;99.90
1786;DHT22;890;48.158;11.540;2023-05-16T16:10:29;13.00;99.90
1786;DHT22;890;48.158;11.540;2023-05-16T16:13:02;13.00;99.90
1786;DHT22;890;48.158;11.540;2023-05-16T16:15:28;13.00;99.90
1786;DHT22;890;48.158;11.540;2023-05-16T16:17:56;13.10;99.90
1786;DHT22;890;48.158;11.540;2023-05-16T16:20:22;13.10;99.90
1786;DHT22;890;48.158;11.540;2023-05-16T16:22:47;13.10;99.90
1786;DHT22;890;48.158;11.540;2023-05-16T16:25:13;13.10;99.90
1786;DHT22;890;48.158;11.540;2023-05-16T16:27:38;13.10;99.90
1786;DHT22;890;48.158;11.540;2023-05-16T16:30:05;13.10;99.90
1786;DHT22;890;48.158;11.540;2023-05-16T16:32:30;13.00;99.90
1786;DHT22;890;48.158;11.540;2023-05-16T16:34:56;13.00;99.90